Time;durP1;ratioP1;P1;durP2;ratioP2;P2;SDS_P1;SDS_P2;PMS_P1;PMS_P2;Temp;Humidity;BMP_temperature;BMP_pressure;BME280_temperature;BME280_humidity;BME280_pressure;Samples;Min_cycle;Max_cycle;Signal;HPM_P1;HPM_P2
2021/07/28 00:02:19;;;;;;;7.78;4.32;;;18.00;90.40;;;;;;5065053;28;20086;-85
2021/07/28 00:04:45;;;;;;;7.10;4.28;;;18.00;90.40;;;;;;5072806;28;20127;-84
2021/07/28 00:07:10;;;;;;;6.57;4.53;;;18.00;90.40;;;;;;5054858;28;20386;-84
2021/07/28 00:09:36;;;;;;;7.78;4.07;;;18.00;90.70;;;;;;5071334;28;20028;-84
2021/07/28 00:12:03;;;;;;;6.07;4.63;;;17.90;90.40;;;;;;5073071;28;20078;-84
2021/07/28 00:14:28;;;;;;;4.88;4.25;;;17.90;90.50;;;;;;5072657;28;20033;-84
2021/07/28 00:16:55;;;;;;;6.55;4.38;;;17.90;90.60;;;;;;5071495;28;20206;-84
2021/07/28 00:19:24;;;;;;;9.50;4.22;;;18.00;90.70;;;;;;5072530;28;20025;-84
2021/07/28 00:24:34;;;;;;;7.75;4.30;;;18.00;90.80;;;;;;5076536;28;20032;-84
2021/07/28 00:27:00;;;;;;;6.50;4.55;;;18.00;90.80;;;;;;5076304;28;20021;-85
2021/07/28 00:29:27;;;;;;;5.10;4.03;;;18.10;91.10;;;;;;5076250;28;20028;-84
2021/07/28 00:31:53;;;;;;;5.57;4.30;;;18.10;90.80;;;;;;5076156;28;20035;-84
2021/07/28 00:34:18;;;;;;;6.63;4.50;;;18.10;90.90;;;;;;5075919;28;20111;-84
2021/07/28 00:36:44;;;;;;;11.40;4.70;;;18.10;90.80;;;;;;5075940;28;20107;-84
2021/07/28 00:39:09;;;;;;;5.32;4.53;;;18.20;90.80;;;;;;5074675;28;20468;-84
2021/07/28 00:41:42;;;;;;;7.22;4.43;;;18.10;90.70;;;;;;5074087;28;20025;-85
2021/07/28 00:44:08;;;;;;;4.78;4.28;;;18.10;90.70;;;;;;5075483;28;20020;-85
2021/07/28 00:46:33;;;;;;;7.32;4.70;;;18.10;90.70;;;;;;5068410;28;20091;-85
2021/07/28 00:48:59;;;;;;;5.00;4.47;;;18.10;90.70;;;;;;5075351;28;20029;-85
2021/07/28 00:51:24;;;;;;;8.90;4.55;;;18.10;90.70;;;;;;5074189;28;20039;-85
2021/07/28 00:53:51;;;;;;;5.35;4.28;;;18.00;90.70;;;;;;5075219;28;20397;-84
2021/07/28 00:56:18;;;;;;;5.90;4.43;;;18.00;90.70;;;;;;5074160;28;20089;-84
2021/07/28 00:58:44;;;;;;;6.40;4.22;;;18.00;90.70;;;;;;5074151;28;20121;-84
2021/07/28 01:01:10;;;;;;;6.30;5.03;;;18.00;90.80;;;;;;5075421;28;20040;-84
2021/07/28 01:03:35;;;;;;;8.13;4.10;;;18.00;90.80;;;;;;5091071;28;20025;-85
2021/07/28 01:06:01;;;;;;;8.30;4.80;;;18.00;90.80;;;;;;5075533;28;20051;-85
2021/07/28 01:08:27;;;;;;;7.70;4.63;;;18.00;90.80;;;;;;5075280;28;20107;-84
2021/07/28 01:10:57;;;;;;;7.68;5.43;;;18.00;90.80;;;;;;5075281;28;20040;-84
2021/07/28 01:13:30;;;;;;;5.70;5.15;;;18.10;91.00;;;;;;5074210;28;20089;-84
2021/07/28 01:16:09;;;;;;;4.90;4.28;;;18.00;90.80;;;;;;5075143;28;20044;-85
2021/07/28 01:18:35;;;;;;;5.75;4.70;;;18.00;90.80;;;;;;5075341;28;20024;-85
2021/07/28 01:21:03;;;;;;;7.32;5.45;;;18.00;90.80;;;;;;5074879;28;20067;-84
2021/07/28 01:23:29;;;;;;;6.25;5.32;;;18.00;90.80;;;;;;5074916;28;20077;-85
2021/07/28 01:25:59;;;;;;;6.43;4.80;;;17.90;90.60;;;;;;5075099;28;20404;-85
2021/07/28 01:28:26;;;;;;;5.55;4.60;;;17.90;90.60;;;;;;5075484;28;20458;-85
2021/07/28 01:31:01;;;;;;;5.15;4.65;;;17.90;90.70;;;;;;5074950;28;20056;-85
2021/07/28 01:33:38;;;;;;;6.10;5.05;;;17.90;90.70;;;;;;5073029;28;20481;-84
2021/07/28 01:36:05;;;;;;;8.65;6.00;;;17.90;90.70;;;;;;5074795;28;20056;-85
2021/07/28 01:38:32;;;;;;;11.13;6.05;;;17.80;90.60;;;;;;5073391;28;20032;-85
2021/07/28 01:41:03;;;;;;;7.95;5.60;;;17.80;90.60;;;;;;5053501;28;20492;-85
2021/07/28 01:43:30;;;;;;;13.45;6.18;;;17.80;90.70;;;;;;5054857;28;20033;-85
2021/07/28 01:45:57;;;;;;;11.73;5.93;;;17.80;90.70;;;;;;5056346;28;20028;-85
2021/07/28 01:48:23;;;;;;;9.45;6.18;;;17.70;90.70;;;;;;5074595;28;20085;-84
2021/07/28 01:50:49;;;;;;;8.57;5.55;;;17.80;90.70;;;;;;5074742;28;20048;-85
2021/07/28 01:53:16;;;;;;;9.18;6.05;;;17.70;90.70;;;;;;5074535;28;20139;-84
2021/07/28 01:55:43;;;;;;;7.78;5.40;;;17.70;90.70;;;;;;5075107;28;20040;-85
2021/07/28 01:58:10;;;;;;;8.82;5.75;;;17.70;90.80;;;;;;5072981;28;20033;-83
2021/07/28 02:00:36;;;;;;;8.88;5.45;;;17.70;90.80;;;;;;5074276;28;20036;-85
2021/07/28 02:03:04;;;;;;;6.82;5.25;;;17.60;90.80;;;;;;5074460;28;20025;-85
2021/07/28 02:05:30;;;;;;;10.25;6.38;;;17.70;90.80;;;;;;5074890;28;20104;-85
2021/07/28 02:08:04;;;;;;;9.98;6.47;;;17.60;90.70;;;;;;5056250;28;20125;-85
2021/07/28 02:10:31;;;;;;;8.57;6.25;;;17.60;90.70;;;;;;5074336;28;20029;-84
2021/07/28 02:12:57;;;;;;;12.40;5.68;;;17.60;90.80;;;;;;5074265;28;20047;-85
2021/07/28 02:15:24;;;;;;;8.20;5.90;;;17.60;90.80;;;;;;5073154;28;20508;-85
2021/07/28 02:17:50;;;;;;;9.65;6.32;;;17.60;90.90;;;;;;5073025;28;20078;-84
2021/07/28 02:20:17;;;;;;;6.95;5.22;;;17.60;91.00;;;;;;5074057;28;20103;-84
2021/07/28 02:22:43;;;;;;;8.18;5.57;;;17.60;91.00;;;;;;5074038;28;20378;-85
2021/07/28 02:25:09;;;;;;;10.30;5.95;;;17.60;91.00;;;;;;5073930;28;20078;-84
2021/07/28 02:27:35;;;;;;;8.93;5.90;;;17.60;91.10;;;;;;5073965;28;20032;-84
2021/07/28 02:30:01;;;;;;;8.68;6.45;;;17.60;91.10;;;;;;5073881;28;20028;-83
2021/07/28 02:32:27;;;;;;;9.02;6.80;;;17.60;91.10;;;;;;5073971;28;20024;-84
2021/07/28 02:34:52;;;;;;;12.13;6.85;;;17.60;91.10;;;;;;5072680;28;20056;-85
2021/07/28 02:37:18;;;;;;;9.18;6.35;;;17.70;91.50;;;;;;5072645;28;20049;-84
2021/07/28 02:39:43;;;;;;;10.95;7.35;;;17.70;91.20;;;;;;5072484;28;20029;-85
2021/07/28 02:42:09;;;;;;;8.30;6.00;;;17.70;91.20;;;;;;5073480;28;20033;-85
2021/07/28 02:44:34;;;;;;;11.60;7.13;;;17.80;91.30;;;;;;5072326;28;20150;-85
2021/07/28 02:47:00;;;;;;;8.75;6.68;;;17.80;91.30;;;;;;5072533;28;20112;-85
2021/07/28 02:49:26;;;;;;;6.95;6.25;;;17.80;91.30;;;;;;5073643;28;20033;-84
2021/07/28 02:51:51;;;;;;;9.02;7.18;;;17.90;91.40;;;;;;5072314;28;20036;-84
2021/07/28 02:54:21;;;;;;;8.95;6.25;;;17.90;91.40;;;;;;5073452;28;20055;-85
2021/07/28 02:56:46;;;;;;;8.43;6.10;;;18.00;91.40;;;;;;5073407;28;20508;-84
2021/07/28 02:59:12;;;;;;;9.10;6.57;;;18.00;91.30;;;;;;5073408;28;20048;-85
2021/07/28 03:01:37;;;;;;;8.07;6.95;;;18.00;91.30;;;;;;5058554;28;20049;-85
2021/07/28 03:04:03;;;;;;;8.10;6.65;;;18.00;91.30;;;;;;5053460;28;20033;-85
2021/07/28 03:06:29;;;;;;;9.82;6.85;;;18.00;91.30;;;;;;5053425;28;20029;-84
2021/07/28 03:08:55;;;;;;;10.00;7.38;;;18.00;91.30;;;;;;5053421;28;20029;-84
2021/07/28 03:11:20;;;;;;;8.48;6.68;;;18.10;91.40;;;;;;5059517;28;20070;-85
2021/07/28 03:13:46;;;;;;;10.32;6.95;;;18.10;91.40;;;;;;5073456;28;20033;-85
2021/07/28 03:16:12;;;;;;;11.00;6.78;;;18.10;91.50;;;;;;5073356;28;20385;-84
2021/07/28 03:18:37;;;;;;;11.10;6.80;;;18.10;91.50;;;;;;5073151;28;20036;-84
2021/07/28 03:21:04;;;;;;;8.68;7.10;;;18.10;91.50;;;;;;5073219;28;20107;-85
2021/07/28 03:23:29;;;;;;;8.18;7.35;;;18.20;91.60;;;;;;5073244;28;20024;-85
2021/07/28 03:25:55;;;;;;;11.43;7.55;;;18.20;91.50;;;;;;5072001;28;20499;-84
2021/07/28 03:28:21;;;;;;;9.88;6.72;;;18.20;91.50;;;;;;5088594;28;20028;-84
2021/07/28 03:30:49;;;;;;;11.18;7.63;;;18.20;91.40;;;;;;5073246;28;20031;-84
2021/07/28 03:33:15;;;;;;;9.13;7.67;;;18.20;91.40;;;;;;5072009;28;20028;-84
2021/07/28 03:35:40;;;;;;;12.13;7.63;;;18.20;91.50;;;;;;5073068;28;20021;-84
2021/07/28 03:38:06;;;;;;;10.65;7.03;;;18.20;91.60;;;;;;5071921;28;20041;-84
2021/07/28 03:40:32;;;;;;;9.52;7.30;;;18.20;91.70;;;;;;5088535;28;20405;-85
2021/07/28 03:42:57;;;;;;;9.02;6.88;;;18.20;91.70;;;;;;5072830;28;20021;-85
2021/07/28 03:45:23;;;;;;;8.50;6.47;;;18.20;91.70;;;;;;5071818;28;20036;-85
2021/07/28 03:47:49;;;;;;;9.02;6.40;;;18.20;91.70;;;;;;5071630;28;20510;-84
2021/07/28 03:50:15;;;;;;;8.95;6.63;;;18.20;91.70;;;;;;5071681;28;20123;-84
2021/07/28 03:52:40;;;;;;;9.93;7.20;;;18.20;91.60;;;;;;5071745;28;20424;-85
2021/07/28 03:55:07;;;;;;;9.77;8.10;;;18.20;91.70;;;;;;5072909;28;20035;-84
2021/07/28 03:57:32;;;;;;;10.18;6.72;;;18.20;91.80;;;;;;5075330;28;20075;-84
2021/07/28 03:59:58;;;;;;;10.05;7.68;;;18.20;91.80;;;;;;5076252;28;20076;-85
2021/07/28 04:02:24;;;;;;;8.73;7.55;;;18.20;91.80;;;;;;5075437;28;20111;-85
2021/07/28 04:04:49;;;;;;;8.63;7.30;;;18.20;91.90;;;;;;5074968;28;20031;-84
2021/07/28 04:07:15;;;;;;;10.10;7.00;;;18.20;91.90;;;;;;5076044;28;20070;-84
2021/07/28 04:09:40;;;;;;;10.13;7.05;;;18.30;91.80;;;;;;5074766;28;20032;-85
2021/07/28 04:12:06;;;;;;;9.70;7.10;;;18.20;91.80;;;;;;5076807;28;20060;-84
2021/07/28 04:14:32;;;;;;;10.85;6.70;;;18.20;91.90;;;;;;5075262;28;20115;-84
2021/07/28 04:16:58;;;;;;;8.30;7.07;;;18.30;91.90;;;;;;5058380;28;20064;-85
2021/07/28 04:19:23;;;;;;;14.20;6.70;;;18.20;91.90;;;;;;5074965;28;20029;-84
2021/07/28 04:21:49;;;;;;;8.73;7.78;;;18.30;92.00;;;;;;5076341;28;20029;-85
2021/07/28 04:24:14;;;;;;;12.02;7.30;;;18.20;92.30;;;;;;5074981;28;20055;-84
2021/07/28 04:26:40;;;;;;;10.40;7.50;;;18.30;91.90;;;;;;5074604;28;20025;-85
2021/07/28 04:29:05;;;;;;;8.85;6.57;;;18.30;91.70;;;;;;5076229;28;20097;-84
2021/07/28 04:31:31;;;;;;;8.70;6.75;;;18.30;91.60;;;;;;5074810;28;20028;-84
2021/07/28 04:33:57;;;;;;;10.48;6.40;;;18.30;91.60;;;;;;5075273;28;20420;-84
2021/07/28 04:36:22;;;;;;;8.77;6.10;;;18.30;91.50;;;;;;5075803;28;20032;-85
2021/07/28 04:38:48;;;;;;;8.63;6.95;;;18.40;91.40;;;;;;5075990;28;20107;-84
2021/07/28 04:41:13;;;;;;;6.60;5.35;;;18.40;91.50;;;;;;5073343;28;20044;-84
2021/07/28 04:43:39;;;;;;;10.20;5.88;;;18.40;91.50;;;;;;5054864;28;20451;-85
2021/07/28 04:46:05;;;;;;;9.00;6.30;;;18.40;91.50;;;;;;5037955;28;20029;-85
2021/07/28 04:48:30;;;;;;;12.80;6.70;;;18.40;91.40;;;;;;5060411;28;20020;-85
2021/07/28 04:50:57;;;;;;;10.55;6.60;;;18.40;91.40;;;;;;5074480;28;20554;-85
2021/07/28 04:53:30;;;;;;;11.88;6.38;;;18.50;91.30;;;;;;5075793;28;20047;-85
2021/07/28 04:55:57;;;;;;;7.40;5.90;;;18.50;91.30;;;;;;5074795;28;20031;-85
2021/07/28 04:58:23;;;;;;;10.60;6.45;;;18.50;91.20;;;;;;5074571;28;20562;-85
2021/07/28 05:00:50;;;;;;;12.63;6.22;;;18.50;91.30;;;;;;5075613;28;20041;-85
2021/07/28 05:03:16;;;;;;;9.43;6.53;;;18.50;91.30;;;;;;5074557;28;20362;-85
2021/07/28 05:05:42;;;;;;;8.07;6.28;;;18.50;91.30;;;;;;5074270;28;20025;-84
2021/07/28 05:08:08;;;;;;;9.25;6.60;;;18.50;91.20;;;;;;5061356;28;20036;-85
2021/07/28 05:10:34;;;;;;;7.82;5.85;;;18.60;91.30;;;;;;5071230;28;20037;-84
2021/07/28 05:13:00;;;;;;;10.60;5.82;;;18.60;91.30;;;;;;5075555;28;20024;-84
2021/07/28 05:15:26;;;;;;;6.97;6.00;;;18.60;91.20;;;;;;5075424;28;20438;-84
2021/07/28 05:17:51;;;;;;;9.13;6.72;;;18.60;91.20;;;;;;5075494;28;20044;-85
2021/07/28 05:20:18;;;;;;;8.65;6.30;;;18.60;91.20;;;;;;5075261;28;20039;-84
2021/07/28 05:22:44;;;;;;;7.32;6.22;;;18.70;91.10;;;;;;5075381;28;20021;-85
2021/07/28 05:25:10;;;;;;;13.43;6.80;;;18.70;91.10;;;;;;5075255;28;20024;-84
2021/07/28 05:27:36;;;;;;;7.97;5.90;;;18.70;91.20;;;;;;5075017;28;20020;-84
2021/07/28 05:30:02;;;;;;;7.38;6.32;;;18.70;91.20;;;;;;5075116;28;20079;-85
2021/07/28 05:32:28;;;;;;;9.65;6.70;;;18.70;91.10;;;;;;5073313;28;20095;-85
2021/07/28 05:34:54;;;;;;;8.93;6.75;;;18.70;91.00;;;;;;5069988;28;20112;-85
2021/07/28 05:37:20;;;;;;;13.18;6.38;;;18.70;91.00;;;;;;5072634;28;20059;-84
2021/07/28 05:39:46;;;;;;;13.88;6.30;;;18.80;91.00;;;;;;5054636;28;20059;-84
2021/07/28 05:42:12;;;;;;;8.57;5.82;;;18.80;90.90;;;;;;5053753;28;20051;-84
2021/07/28 05:44:38;;;;;;;11.93;6.40;;;18.80;90.90;;;;;;5054642;28;20059;-84
2021/07/28 05:47:04;;;;;;;9.00;6.18;;;18.80;91.00;;;;;;5061267;28;20052;-84
2021/07/28 05:49:30;;;;;;;7.78;5.95;;;18.80;91.00;;;;;;5072728;28;20123;-84
2021/07/28 05:51:55;;;;;;;11.48;7.30;;;18.80;90.80;;;;;;5074662;28;20024;-84
2021/07/28 05:54:21;;;;;;;9.32;5.97;;;18.90;90.90;;;;;;5074596;28;20077;-84
2021/07/28 05:56:47;;;;;;;9.52;6.95;;;18.90;90.80;;;;;;5069535;28;20488;-85
2021/07/28 05:59:13;;;;;;;10.52;6.35;;;18.90;90.70;;;;;;5054330;28;20048;-84
2021/07/28 06:01:39;;;;;;;11.25;7.15;;;18.90;90.70;;;;;;5053472;28;20404;-85
2021/07/28 06:04:05;;;;;;;11.20;6.32;;;18.90;90.60;;;;;;5068386;28;20032;-86
2021/07/28 06:06:30;;;;;;;7.70;6.22;;;18.80;90.60;;;;;;5094636;28;20082;-86
2021/07/28 06:08:56;;;;;;;7.40;6.53;;;18.90;90.80;;;;;;5094577;28;20038;-84
2021/07/28 06:11:22;;;;;;;7.55;5.88;;;18.80;91.00;;;;;;5093453;28;20122;-86
2021/07/28 06:13:48;;;;;;;6.70;5.63;;;18.80;91.10;;;;;;5094550;28;20028;-85
2021/07/28 06:16:13;;;;;;;6.68;5.70;;;18.80;91.10;;;;;;5094500;28;20085;-86
2021/07/28 06:18:39;;;;;;;8.93;5.78;;;18.80;91.20;;;;;;5094408;28;20032;-85
2021/07/28 06:21:05;;;;;;;8.35;5.82;;;18.80;91.30;;;;;;5092929;28;20032;-85
2021/07/28 06:23:31;;;;;;;7.07;5.80;;;18.90;91.40;;;;;;5093173;28;20034;-85
2021/07/28 06:25:56;;;;;;;7.38;5.75;;;18.90;91.50;;;;;;5094293;28;20032;-86
2021/07/28 06:28:22;;;;;;;6.75;6.00;;;18.90;91.30;;;;;;5093037;28;20077;-85
2021/07/28 06:30:51;;;;;;;9.23;6.07;;;19.00;91.30;;;;;;5093063;28;20384;-85
2021/07/28 06:33:21;;;;;;;7.75;6.30;;;19.00;91.40;;;;;;5094082;28;20028;-86
2021/07/28 06:35:48;;;;;;;10.85;7.13;;;19.00;91.50;;;;;;5094305;28;20020;-85
2021/07/28 06:38:15;;;;;;;10.30;6.38;;;19.00;91.40;;;;;;5092968;28;20366;-85
2021/07/28 06:40:41;;;;;;;8.23;5.90;;;19.00;91.50;;;;;;5075052;28;20036;-85
2021/07/28 06:43:06;;;;;;;8.55;6.43;;;19.10;91.60;;;;;;5073751;28;20054;-86
2021/07/28 06:45:32;;;;;;;9.10;6.28;;;19.10;91.50;;;;;;5073538;28;20079;-85
2021/07/28 06:47:58;;;;;;;11.13;6.25;;;19.20;91.50;;;;;;5072066;28;20371;-85
2021/07/28 06:50:23;;;;;;;10.63;5.97;;;19.20;91.40;;;;;;5072710;28;20095;-86
2021/07/28 06:52:49;;;;;;;10.45;5.93;;;19.20;91.30;;;;;;5073603;28;20381;-86
2021/07/28 06:55:15;;;;;;;11.93;6.70;;;19.30;91.30;;;;;;5072575;28;20081;-86
2021/07/28 06:57:41;;;;;;;6.57;5.60;;;19.40;91.20;;;;;;5060587;28;20033;-86
2021/07/28 07:00:07;;;;;;;10.73;6.20;;;19.40;90.90;;;;;;5065768;28;20056;-84
2021/07/28 07:02:32;;;;;;;10.13;6.00;;;19.30;90.90;;;;;;5083904;28;20028;-82
2021/07/28 07:04:58;;;;;;;9.25;5.82;;;19.30;91.00;;;;;;5073467;28;20504;-83
2021/07/28 07:07:24;;;;;;;8.88;5.50;;;19.30;91.00;;;;;;5073514;28;20036;-84
2021/07/28 07:09:52;;;;;;;7.82;5.15;;;19.40;90.90;;;;;;5073476;28;20028;-84
2021/07/28 07:12:18;;;;;;;10.07;5.28;;;19.50;90.70;;;;;;5073454;28;20073;-84
2021/07/28 07:14:45;;;;;;;6.72;5.32;;;19.70;90.30;;;;;;5071925;28;20031;-84
2021/07/28 07:17:10;;;;;;;6.65;4.93;;;19.80;89.50;;;;;;5056483;28;20067;-84
2021/07/28 07:19:36;;;;;;;8.52;5.70;;;19.90;89.30;;;;;;5064627;28;20060;-84
2021/07/28 07:22:02;;;;;;;8.60;5.40;;;19.90;88.80;;;;;;5071826;28;20028;-84
2021/07/28 07:24:27;;;;;;;6.20;5.43;;;19.90;88.60;;;;;;5072538;28;20473;-84
2021/07/28 07:26:53;;;;;;;11.50;5.90;;;20.20;88.50;;;;;;5072087;28;20509;-84
2021/07/28 07:29:18;;;;;;;8.43;5.53;;;20.30;87.20;;;;;;5073043;28;20035;-84
2021/07/28 07:31:44;;;;;;;10.45;5.30;;;20.50;86.90;;;;;;5074250;28;20100;-84
2021/07/28 07:34:10;;;;;;;9.82;5.22;;;20.60;86.60;;;;;;5077121;28;20539;-84
2021/07/28 07:36:36;;;;;;;8.40;5.55;;;20.90;85.40;;;;;;5057147;28;20481;-84
2021/07/28 07:39:03;;;;;;;7.30;5.40;;;21.00;83.50;;;;;;5056919;28;20103;-86
2021/07/28 07:41:29;;;;;;;7.65;5.70;;;21.00;84.00;;;;;;5056893;28;20107;-83
2021/07/28 07:43:57;;;;;;;8.95;5.22;;;21.00;84.60;;;;;;5055860;28;20116;-84
2021/07/28 07:46:23;;;;;;;10.52;5.05;;;21.00;83.60;;;;;;5075162;28;20477;-86
2021/07/28 07:48:49;;;;;;;7.57;5.63;;;20.90;82.70;;;;;;5076915;28;20559;-86
2021/07/28 07:51:14;;;;;;;9.45;5.72;;;20.70;82.40;;;;;;5076938;28;20116;-85
2021/07/28 07:53:40;;;;;;;9.27;5.20;;;20.60;81.90;;;;;;5092471;28;20473;-85
2021/07/28 07:56:06;;;;;;;10.68;5.20;;;20.40;82.90;;;;;;5076570;28;20028;-85
2021/07/28 07:58:33;;;;;;;9.00;5.72;;;20.40;83.30;;;;;;5092477;28;20548;-85
2021/07/28 08:01:04;;;;;;;7.32;5.03;;;20.40;83.50;;;;;;5076332;28;20036;-85
2021/07/28 08:03:30;;;;;;;10.45;5.13;;;20.40;83.60;;;;;;5076786;28;20056;-85
2021/07/28 08:05:55;;;;;;;8.40;4.82;;;20.40;83.60;;;;;;5076805;28;20470;-89
2021/07/28 08:08:21;;;;;;;7.88;4.80;;;20.50;83.60;;;;;;5081869;28;20032;-90
2021/07/28 08:10:46;;;;;;;7.38;4.78;;;20.70;82.00;;;;;;5075957;28;20103;-90
2021/07/28 08:13:12;;;;;;;10.60;4.85;;;20.90;81.90;;;;;;5060090;28;20060;-89
2021/07/28 08:15:38;;;;;;;6.45;4.28;;;21.20;80.80;;;;;;5089209;28;20025;-90
2021/07/28 08:18:04;;;;;;;6.55;4.70;;;21.40;80.00;;;;;;5055507;28;20044;-89
2021/07/28 08:20:30;;;;;;;9.27;4.50;;;21.60;79.10;;;;;;5055539;28;20029;-89
2021/07/28 08:22:56;;;;;;;7.22;3.83;;;21.80;77.90;;;;;;5056712;28;20496;-89
2021/07/28 08:25:21;;;;;;;10.73;3.90;;;22.10;77.00;;;;;;5076157;28;20039;-90
2021/07/28 08:27:47;;;;;;;5.93;2.90;;;22.30;76.40;;;;;;5075618;28;20028;-89
2021/07/28 08:30:13;;;;;;;4.07;3.10;;;22.50;75.00;;;;;;5076331;28;20036;-87
2021/07/28 08:32:39;;;;;;;5.60;3.00;;;22.60;74.30;;;;;;5058292;28;20028;-87
2021/07/28 08:35:05;;;;;;;5.07;2.80;;;22.70;73.70;;;;;;5076010;28;20024;-86
2021/07/28 08:37:31;;;;;;;5.13;2.72;;;22.70;72.70;;;;;;5074831;28;20127;-87
2021/07/28 08:39:57;;;;;;;8.55;3.50;;;22.60;72.90;;;;;;5074616;28;20103;-88
2021/07/28 08:42:27;;;;;;;5.00;2.97;;;22.60;72.20;;;;;;5091907;28;20445;-90
2021/07/28 08:44:52;;;;;;;8.60;2.67;;;22.50;72.20;;;;;;5076516;28;20535;-90
2021/07/28 08:47:18;;;;;;;5.20;3.20;;;22.40;72.50;;;;;;5076546;28;20025;-89
2021/07/28 08:49:44;;;;;;;8.70;3.20;;;22.30;72.00;;;;;;5075145;28;20028;-89
2021/07/28 08:52:10;;;;;;;5.60;2.83;;;22.20;72.10;;;;;;5076370;28;20033;-89
2021/07/28 08:54:36;;;;;;;7.70;3.10;;;22.10;72.80;;;;;;5058311;28;20489;-89
2021/07/28 08:57:02;;;;;;;6.00;2.90;;;21.90;73.90;;;;;;5076405;28;20036;-89
2021/07/28 08:59:33;;;;;;;10.65;3.22;;;21.80;74.80;;;;;;5075823;28;20074;-88
2021/07/28 09:02:01;;;;;;;8.15;3.00;;;21.70;74.60;;;;;;5076223;28;20107;-87
2021/07/28 09:04:27;;;;;;;6.18;3.15;;;21.80;74.50;;;;;;5075952;28;20020;-88
2021/07/28 09:06:54;;;;;;;5.25;3.10;;;22.10;73.60;;;;;;5074493;28;20047;-88
2021/07/28 09:09:20;;;;;;;3.92;2.70;;;22.30;73.20;;;;;;5075480;28;20474;-87
2021/07/28 09:11:54;;;;;;;11.95;3.08;;;22.40;73.10;;;;;;5075992;28;20027;-85
2021/07/28 09:14:25;;;;;;;5.07;2.55;;;22.60;72.50;;;;;;5075647;28;20017;-86
2021/07/28 09:16:51;;;;;;;5.78;2.35;;;22.70;71.50;;;;;;5057632;28;20091;-85
2021/07/28 09:19:41;;;;;;;6.50;2.40;;;22.80;71.20;;;;;;5075393;28;20078;-88
2021/07/28 09:22:07;;;;;;;2.92;1.88;;;22.90;69.50;;;;;;5076631;28;20032;-90
2021/07/28 09:24:33;;;;;;;4.20;1.85;;;23.00;67.50;;;;;;5076400;28;20489;-88
2021/07/28 09:26:59;;;;;;;6.82;1.60;;;23.20;67.20;;;;;;5074347;28;20052;-87
2021/07/28 09:29:26;;;;;;;4.38;2.00;;;23.40;67.10;;;;;;5075768;28;20056;-89
2021/07/28 09:32:04;;;;;;;3.67;1.70;;;23.60;65.60;;;;;;5073709;28;20028;-88
2021/07/28 09:34:40;;;;;;;2.88;1.65;;;23.80;63.30;;;;;;5075072;28;20512;-89
2021/07/28 09:37:10;;;;;;;3.22;1.63;;;24.00;63.30;;;;;;5075385;28;20063;-87
2021/07/28 09:39:38;;;;;;;4.50;1.73;;;24.00;63.00;;;;;;5057227;28;20025;-88
2021/07/28 09:42:09;;;;;;;5.97;1.75;;;24.10;61.70;;;;;;5073223;28;20027;-87
2021/07/28 09:44:35;;;;;;;4.10;1.63;;;24.20;63.30;;;;;;5074701;28;20025;-87
2021/07/28 09:47:22;;;;;;;3.75;1.60;;;24.30;61.90;;;;;;5074840;28;20075;-87
2021/07/28 09:49:49;;;;;;;3.35;1.55;;;24.30;63.60;;;;;;5066398;28;20485;-87
2021/07/28 09:52:20;;;;;;;4.10;1.83;;;24.30;64.40;;;;;;5075037;28;20037;-88
2021/07/28 09:54:51;;;;;;;4.25;1.60;;;24.50;62.60;;;;;;5072996;28;20056;-89
2021/07/28 09:57:27;;;;;;;7.55;1.70;;;24.60;61.40;;;;;;5074909;28;20392;-88
2021/07/28 09:59:58;;;;;;;3.90;1.55;;;24.80;61.50;;;;;;5055532;28;20136;-89
2021/07/28 10:02:24;;;;;;;2.97;1.20;;;24.90;60.30;;;;;;5055670;28;20026;-89
2021/07/28 10:04:52;;;;;;;4.32;1.50;;;25.00;59.10;;;;;;5054938;28;20028;-89
2021/07/28 10:07:21;;;;;;;10.00;1.90;;;25.10;58.40;;;;;;5055205;28;20046;-89
2021/07/28 10:10:00;;;;;;;6.72;1.33;;;24.90;58.70;;;;;;5064344;28;20393;-90
2021/07/28 10:12:27;;;;;;;4.80;1.80;;;24.80;58.90;;;;;;5074839;28;20103;-90
2021/07/28 10:14:54;;;;;;;4.72;1.60;;;24.90;59.40;;;;;;5074484;28;20485;-90
2021/07/28 10:17:21;;;;;;;7.22;1.83;;;24.90;58.70;;;;;;5075175;28;20398;-88
2021/07/28 10:19:48;;;;;;;5.07;1.70;;;24.80;58.90;;;;;;5056462;28;20481;-88
2021/07/28 10:22:16;;;;;;;6.10;2.00;;;24.60;60.10;;;;;;5074281;28;20435;-88
2021/07/28 10:24:44;;;;;;;4.30;1.83;;;24.60;59.90;;;;;;5089806;28;20553;-88
2021/07/28 10:27:10;;;;;;;3.70;1.83;;;24.70;60.40;;;;;;5074305;28;20052;-88
2021/07/28 10:29:35;;;;;;;5.63;1.20;;;24.80;59.30;;;;;;5072919;28;20517;-87
2021/07/28 10:32:01;;;;;;;2.55;1.45;;;24.80;58.60;;;;;;5085889;28;20032;-89
2021/07/28 10:34:29;;;;;;;2.65;1.30;;;24.90;58.20;;;;;;5074134;28;20044;-88
2021/07/28 10:37:07;;;;;;;8.10;1.50;;;25.00;58.80;;;;;;5074285;28;20069;-88
2021/07/28 10:39:34;;;;;;;3.78;1.50;;;25.10;58.00;;;;;;5076913;28;20040;-90
2021/07/28 10:42:00;;;;;;;3.03;1.58;;;25.20;57.60;;;;;;5080243;28;20028;-92
2021/07/28 10:44:25;;;;;;;5.05;1.30;;;25.40;58.60;;;;;;5086128;28;20036;-89
2021/07/28 10:46:51;;;;;;;4.85;1.50;;;25.50;58.00;;;;;;5072471;28;20035;-89
2021/07/28 10:49:37;;;;;;;3.22;1.30;;;25.60;57.20;;;;;;5073979;28;20021;-89
2021/07/28 10:52:08;;;;;;;4.60;1.40;;;25.70;56.30;;;;;;5059863;28;20028;-87
2021/07/28 10:54:54;;;;;;;6.20;1.35;;;25.70;55.30;;;;;;5073409;28;20028;-89
2021/07/28 10:57:35;;;;;;;3.08;1.48;;;25.80;55.40;;;;;;5091052;28;20020;-89
2021/07/28 11:00:01;;;;;;;3.30;1.42;;;25.80;56.50;;;;;;5073253;28;20040;-88
2021/07/28 11:02:55;;;;;;;3.65;1.58;;;25.90;55.40;;;;;;5075048;28;20081;-89
2021/07/28 11:05:22;;;;;;;3.40;1.30;;;26.00;55.00;;;;;;5074903;28;20023;-90
2021/07/28 11:10:29;;;;;;;4.78;1.02;;;25.90;54.30;;;;;;5073688;28;20307;-88
2021/07/28 11:12:55;;;;;;;4.13;1.35;;;26.10;54.60;;;;;;5073605;28;20082;-88
2021/07/28 11:15:21;;;;;;;2.50;1.20;;;26.10;54.70;;;;;;5073475;28;20413;-88
2021/07/28 11:17:52;;;;;;;5.78;1.60;;;26.10;54.40;;;;;;5073474;28;20028;-87
2021/07/28 11:20:35;;;;;;;3.83;1.35;;;26.20;54.50;;;;;;5073518;28;20031;-88
2021/07/28 11:23:28;;;;;;;4.18;1.20;;;26.20;54.20;;;;;;5073755;28;20016;-90
2021/07/28 11:25:58;;;;;;;2.72;1.17;;;26.30;53.10;;;;;;5073463;28;20023;-89
2021/07/28 11:28:24;;;;;;;2.28;1.13;;;26.30;53.50;;;;;;5088518;28;20508;-89
2021/07/28 11:30:57;;;;;;;2.88;1.40;;;26.20;53.60;;;;;;5073568;28;20028;-88
2021/07/28 11:33:23;;;;;;;7.75;1.48;;;26.20;53.10;;;;;;5073572;28;20032;-91
2021/07/28 11:35:51;;;;;;;3.95;1.48;;;26.00;54.20;;;;;;5072756;28;20029;-90
2021/07/28 11:38:17;;;;;;;5.47;1.52;;;25.80;54.10;;;;;;5072895;28;20032;-88
2021/07/28 11:40:47;;;;;;;6.43;1.58;;;25.50;54.40;;;;;;5072165;28;20036;-88
2021/07/28 11:43:23;;;;;;;3.58;1.23;;;25.50;54.50;;;;;;5072822;28;20059;-86
2021/07/28 11:45:50;;;;;;;4.30;0.95;;;25.70;54.40;;;;;;5055355;28;20029;-88
2021/07/28 11:48:37;;;;;;;2.83;1.08;;;25.80;53.80;;;;;;5071853;28;20112;-86
2021/07/28 11:51:08;;;;;;;4.70;1.17;;;25.90;53.80;;;;;;5053174;28;20029;-88
2021/07/28 11:53:35;;;;;;;3.17;1.27;;;25.80;53.30;;;;;;5062446;28;20029;-91
2021/07/28 11:56:15;;;;;;;4.05;1.20;;;25.60;53.30;;;;;;5073117;28;20031;-87
2021/07/28 11:58:46;;;;;;;3.22;1.23;;;25.60;53.40;;;;;;5071808;28;20025;-87
2021/07/28 12:01:34;;;;;;;4.93;1.25;;;25.20;54.30;;;;;;5071814;28;20064;-88
2021/07/28 12:04:09;;;;;;;3.90;1.25;;;25.00;54.70;;;;;;5072134;28;20021;-89
2021/07/28 12:06:35;;;;;;;3.20;1.10;;;24.90;55.40;;;;;;5071740;28;20029;-89
2021/07/28 12:09:16;;;;;;;4.05;1.33;;;25.00;56.00;;;;;;5082921;28;20023;-91
2021/07/28 12:12:01;;;;;;;3.20;1.40;;;25.00;55.90;;;;;;5071565;28;20037;-88
2021/07/28 12:14:31;;;;;;;2.38;1.15;;;24.80;55.10;;;;;;5054930;28;20067;-87
2021/07/28 12:16:59;;;;;;;7.50;1.40;;;24.60;55.30;;;;;;5072935;28;20028;-86
2021/07/28 12:19:26;;;;;;;;;;;24.40;55.90;;;;;;5075765;28;20458;-88
2021/07/28 12:21:57;;;;;;;5.47;1.30;;;24.50;55.80;;;;;;5070512;28;19912;-89
2021/07/28 12:24:39;;;;;;;4.30;1.00;;;24.80;53.90;;;;;;5057031;28;20036;-89
2021/07/28 12:27:27;;;;;;;4.07;1.40;;;24.90;54.40;;;;;;5056660;28;20083;-89
2021/07/28 12:30:20;;;;;;;6.75;1.45;;;25.00;54.60;;;;;;5060465;28;20082;-87
2021/07/28 12:33:05;;;;;;;2.42;0.90;;;25.10;54.70;;;;;;5074688;28;20120;-89
2021/07/28 12:35:38;;;;;;;4.32;1.20;;;25.10;54.90;;;;;;5092015;28;20020;-88
2021/07/28 12:38:19;;;;;;;4.63;1.30;;;25.20;54.50;;;;;;5075475;28;20016;-90
2021/07/28 12:40:49;;;;;;;6.00;1.27;;;25.20;54.10;;;;;;5074687;28;20040;-89
2021/07/28 12:43:15;;;;;;;5.35;1.40;;;25.10;54.60;;;;;;5061305;28;20080;-86
2021/07/28 12:45:41;;;;;;;6.88;1.25;;;25.00;54.50;;;;;;5056455;28;20025;-91
2021/07/28 12:48:08;;;;;;;8.63;1.40;;;24.90;54.80;;;;;;5054681;28;20025;-89
2021/07/28 12:50:34;;;;;;;5.55;1.17;;;25.00;55.50;;;;;;5056572;28;20048;-89
2021/07/28 12:53:02;;;;;;;3.50;1.20;;;25.20;55.50;;;;;;5056220;28;20095;-91
2021/07/28 12:55:28;;;;;;;3.60;1.38;;;25.40;54.90;;;;;;5056412;28;20029;-91